createdAt,value
2023-04-21T00:01:33.016Z,11.00
2023-04-21T00:04:00.357Z,10.70
2023-04-21T00:06:28.655Z,10.17
2023-04-21T00:08:55.391Z,9.63
2023-04-21T00:11:22.627Z,10.20
2023-04-21T00:13:49.306Z,10.63
2023-04-21T00:16:16.074Z,11.53
2023-04-21T00:18:43.163Z,12.10
2023-04-21T00:21:09.802Z,11.43
2023-04-21T00:23:36.461Z,11.30
2023-04-21T00:26:03.225Z,10.77
2023-04-21T00:28:30.143Z,11.03
2023-04-21T00:30:56.858Z,10.93
2023-04-21T00:33:23.676Z,12.30
2023-04-21T00:35:50.347Z,11.13
2023-04-21T00:38:17.014Z,11.70
2023-04-21T00:40:43.674Z,12.03
2023-04-21T00:43:10.277Z,12.20
2023-04-21T00:45:36.976Z,13.17
2023-04-21T00:48:03.750Z,12.60
2023-04-21T00:50:30.890Z,14.20
2023-04-21T00:52:57.998Z,15.00
2023-04-21T00:55:25.517Z,12.43
2023-04-21T00:57:53.544Z,12.33
2023-04-21T01:00:20.465Z,13.70
2023-04-21T01:02:47.543Z,14.80
2023-04-21T01:05:16.710Z,13.97
2023-04-21T01:07:44.231Z,12.87
2023-04-21T01:10:11.195Z,15.47
2023-04-21T01:12:48.129Z,16.53
2023-04-21T01:15:17.886Z,15.20
2023-04-21T01:17:45.589Z,13.90
2023-04-21T01:20:16.838Z,15.73
2023-04-21T01:22:45.215Z,15.87
2023-04-21T01:25:12.063Z,13.40
2023-04-21T01:27:39.042Z,16.60
2023-04-21T01:30:09.224Z,15.87
2023-04-21T01:32:36.514Z,16.67
2023-04-21T01:35:03.706Z,15.07
2023-04-21T01:37:33.228Z,15.40
2023-04-21T01:40:05.181Z,14.73
2023-04-21T01:42:38.214Z,17.90
2023-04-21T01:45:05.594Z,16.67
2023-04-21T01:47:32.627Z,17.23
2023-04-21T01:49:59.441Z,17.50
2023-04-21T01:52:26.273Z,17.07
2023-04-21T01:54:53.319Z,17.93
2023-04-21T01:57:20.088Z,19.10
2023-04-21T01:59:47.062Z,19.23
2023-04-21T02:02:14.008Z,17.40
2023-04-21T02:04:41.112Z,19.43
2023-04-21T02:07:08.156Z,19.90
2023-04-21T02:09:35.221Z,18.60
2023-04-21T02:12:02.430Z,16.47
2023-04-21T02:14:29.291Z,19.77
2023-04-21T02:16:56.514Z,18.47
2023-04-21T02:19:23.936Z,17.57
2023-04-21T02:21:50.801Z,17.83
2023-04-21T02:24:17.861Z,17.43
2023-04-21T02:26:44.656Z,19.43
2023-04-21T02:29:11.444Z,19.17
2023-04-21T02:31:54.326Z,19.40
2023-04-21T02:34:25.780Z,21.07
2023-04-21T02:36:52.534Z,22.40
2023-04-21T02:39:19.788Z,22.07
2023-04-21T02:41:47.049Z,19.60
2023-04-21T02:44:13.781Z,21.60
2023-04-21T02:46:44.104Z,20.53
2023-04-21T02:49:11.284Z,19.73
2023-04-21T02:51:38.261Z,20.40
2023-04-21T02:54:06.031Z,20.07
2023-04-21T02:56:34.719Z,21.00
2023-04-21T02:59:01.919Z,21.20
2023-04-21T03:01:28.681Z,19.60
2023-04-21T03:03:55.741Z,17.70
2023-04-21T03:06:22.620Z,19.37
2023-04-21T03:08:49.446Z,19.70
2023-04-21T03:11:16.449Z,18.30
2023-04-21T03:13:43.199Z,18.40
2023-04-21T03:16:10.215Z,17.83
2023-04-21T03:18:37.347Z,18.13
2023-04-21T03:21:04.147Z,17.90
2023-04-21T03:23:30.920Z,20.17
2023-04-21T03:25:57.672Z,17.33
2023-04-21T03:28:24.478Z,20.03
2023-04-21T03:30:53.137Z,18.10
2023-04-21T03:33:20.021Z,20.03
2023-04-21T03:35:46.794Z,20.43
2023-04-21T03:38:13.522Z,20.00
2023-04-21T03:40:40.285Z,19.27
2023-04-21T03:43:07.078Z,17.53
2023-04-21T03:45:36.113Z,14.77
2023-04-21T03:48:03.990Z,14.70
2023-04-21T03:50:31.504Z,14.07
2023-04-21T03:52:58.715Z,12.50
2023-04-21T03:55:25.488Z,11.83
2023-04-21T03:57:52.354Z,12.57
2023-04-21T04:00:19.288Z,11.70
2023-04-21T04:02:46.179Z,11.63
2023-04-21T04:05:13.196Z,13.67
2023-04-21T04:07:40.176Z,12.33
2023-04-21T04:10:07.035Z,12.33
2023-04-21T04:12:37.340Z,12.20
2023-04-21T04:15:04.480Z,14.70
2023-04-21T04:17:31.296Z,13.67
2023-04-21T04:19:58.060Z,14.03
2023-04-21T04:22:24.867Z,14.07
2023-04-21T04:24:53.463Z,15.20
2023-04-21T04:27:20.524Z,14.63
2023-04-21T04:29:49.593Z,14.30
2023-04-21T04:32:16.446Z,14.20
2023-04-21T04:34:43.214Z,14.90
2023-04-21T04:37:11.777Z,14.60
2023-04-21T04:39:59.680Z,17.83
2023-04-21T04:42:26.466Z,16.10
2023-04-21T04:44:54.085Z,16.80
2023-04-21T04:47:21.284Z,16.03
2023-04-21T04:49:48.290Z,15.17
2023-04-21T04:52:15.059Z,14.60
2023-04-21T04:54:42.113Z,12.73
2023-04-21T04:57:08.835Z,15.20
2023-04-21T04:59:36.760Z,15.77
2023-04-21T05:02:04.421Z,16.33
2023-04-21T05:04:31.673Z,14.53
2023-04-21T05:06:58.519Z,13.37
2023-04-21T05:09:26.171Z,15.43
2023-04-21T05:11:53.214Z,15.03
2023-04-21T05:14:20.188Z,14.37
2023-04-21T05:16:49.125Z,15.30
2023-04-21T05:19:18.082Z,13.43
2023-04-21T05:21:45.467Z,15.73
2023-04-21T05:24:12.297Z,14.90
2023-04-21T05:26:40.352Z,15.73
2023-04-21T05:29:07.181Z,14.97
2023-04-21T05:31:35.117Z,16.50
2023-04-21T05:34:01.949Z,15.57
2023-04-21T05:36:30.642Z,16.23
2023-04-21T05:38:57.408Z,15.80
2023-04-21T05:41:24.378Z,16.10
2023-04-21T07:45:40.485Z,15.03
2023-04-21T07:48:07.648Z,14.23
2023-04-21T07:50:37.222Z,13.70
2023-04-21T07:53:04.089Z,15.20
2023-04-21T07:55:30.909Z,16.03
2023-04-21T07:57:57.616Z,14.40
2023-04-21T08:00:24.508Z,15.03
2023-04-21T08:02:51.576Z,14.97
2023-04-21T08:05:18.626Z,14.87
2023-04-21T08:07:45.427Z,15.87
2023-04-21T08:10:12.244Z,15.87
2023-04-21T08:12:38.956Z,14.67
2023-04-21T08:15:08.253Z,14.37
2023-04-21T08:17:35.286Z,13.53
2023-04-21T08:20:02.553Z,15.27
2023-04-21T08:22:29.340Z,15.37
2023-04-21T08:24:56.339Z,14.03
2023-04-21T08:27:23.476Z,15.97
2023-04-21T08:29:51.147Z,14.90
2023-04-21T08:32:23.676Z,14.90
2023-04-21T08:34:51.967Z,14.37
2023-04-21T08:37:19.609Z,14.33
2023-04-21T08:39:46.769Z,13.50
2023-04-21T08:42:15.025Z,13.70
2023-04-21T08:44:41.763Z,13.33
2023-04-21T08:47:11.341Z,13.40
2023-04-21T08:49:39.339Z,12.07
2023-04-21T08:52:06.791Z,12.70
2023-04-21T08:54:36.504Z,12.73
2023-04-21T08:57:13.970Z,12.47
2023-04-21T08:59:41.655Z,11.33
2023-04-21T09:02:11.557Z,12.63
2023-04-21T09:04:44.172Z,12.77
2023-04-21T09:07:11.175Z,11.30
2023-04-21T09:09:54.699Z,13.13
2023-04-21T09:12:22.662Z,10.47
2023-04-21T09:14:49.667Z,11.50
2023-04-21T09:17:18.368Z,10.77
2023-04-21T09:19:45.214Z,11.10
2023-04-21T09:22:16.852Z,12.13
2023-04-21T09:24:48.746Z,12.87
2023-04-21T09:27:16.931Z,12.70
2023-04-21T09:29:50.861Z,12.20
2023-04-21T09:32:19.494Z,11.70
2023-04-21T09:34:46.875Z,11.83
2023-04-21T09:37:16.517Z,14.00
2023-04-21T09:40:03.414Z,12.30
2023-04-21T09:42:32.553Z,11.40
2023-04-21T09:45:14.040Z,12.20
2023-04-21T09:47:53.401Z,12.57
2023-04-21T09:50:36.182Z,12.90
2023-04-21T09:53:14.976Z,11.83
2023-04-21T09:55:42.170Z,11.67
2023-04-21T09:58:12.343Z,12.50
2023-04-21T10:00:39.937Z,12.30
2023-04-21T10:03:11.448Z,10.90
2023-04-21T10:05:42.133Z,10.80
2023-04-21T10:08:11.651Z,13.10
2023-04-21T10:10:39.678Z,12.53
2023-04-21T10:13:07.383Z,9.87
2023-04-21T10:15:41.833Z,10.10
2023-04-21T10:18:16.381Z,10.97
2023-04-21T10:21:03.556Z,12.03
2023-04-21T10:23:36.769Z,9.60
2023-04-21T10:26:11.337Z,9.83
2023-04-21T10:28:48.501Z,8.27
2023-04-21T10:31:31.822Z,8.17
2023-04-21T10:34:07.790Z,10.80
2023-04-21T10:36:42.268Z,9.77
2023-04-21T10:39:12.228Z,9.70
2023-04-21T10:41:39.201Z,10.20
2023-04-21T10:44:13.934Z,9.70
2023-04-21T10:46:46.307Z,9.07
2023-04-21T10:49:22.779Z,8.37
2023-04-21T10:51:59.062Z,8.97
2023-04-21T10:54:26.893Z,6.87
2023-04-21T10:56:58.243Z,7.00
2023-04-21T10:59:28.350Z,7.13
2023-04-21T11:01:55.116Z,7.13
2023-04-21T11:04:23.359Z,8.23
2023-04-21T11:07:07.706Z,8.97
2023-04-21T11:09:36.275Z,7.50
2023-04-21T11:12:18.168Z,8.00
2023-04-21T11:14:49.645Z,7.47
2023-04-21T11:17:18.186Z,8.87
2023-04-21T11:19:54.296Z,7.90
2023-04-21T11:22:23.116Z,6.40
2023-04-21T11:24:53.407Z,8.00
2023-04-21T11:27:22.317Z,7.27
2023-04-21T11:29:51.889Z,8.60
2023-04-21T11:32:21.424Z,5.10
2023-04-21T11:34:48.297Z,4.60
2023-04-21T11:37:17.145Z,5.23
2023-04-21T11:39:44.231Z,5.30
2023-04-21T11:42:11.899Z,4.90
2023-04-21T11:44:43.203Z,3.07
2023-04-21T11:47:14.839Z,4.20
2023-04-21T11:49:52.301Z,7.40
2023-04-21T11:52:24.681Z,3.80
2023-04-21T11:55:05.028Z,3.83
2023-04-21T11:57:33.580Z,4.70
2023-04-21T12:00:02.120Z,3.20
2023-04-21T12:02:31.151Z,4.13
2023-04-21T12:05:00.118Z,3.57
2023-04-21T12:07:27.417Z,3.70
2023-04-21T12:09:54.299Z,3.67
2023-04-21T12:12:24.324Z,4.33
2023-04-21T12:14:51.852Z,3.93
2023-04-21T12:17:18.658Z,3.43
2023-04-21T12:19:45.471Z,4.37
2023-04-21T12:22:14.470Z,4.23
2023-04-21T12:24:41.937Z,3.67
2023-04-21T12:27:09.412Z,2.97
2023-04-21T12:29:37.512Z,2.70
2023-04-21T12:32:08.600Z,2.73
2023-04-21T12:34:36.108Z,3.10
2023-04-21T12:37:03.864Z,2.50
2023-04-21T12:39:31.734Z,3.27
2023-04-21T12:41:59.473Z,4.37
2023-04-21T12:44:26.883Z,4.03
2023-04-21T12:46:53.950Z,3.67
2023-04-21T12:49:20.951Z,2.93
2023-04-21T12:51:49.161Z,3.50
2023-04-21T12:54:16.121Z,2.33
2023-04-21T12:56:43.198Z,3.10
2023-04-21T12:59:11.330Z,2.37
2023-04-21T13:01:40.120Z,2.33
2023-04-21T13:04:07.976Z,8.30
2023-04-21T13:06:35.056Z,3.20
2023-04-21T13:09:01.959Z,3.43
2023-04-21T13:11:28.640Z,3.90
2023-04-21T13:13:55.382Z,3.40
2023-04-21T13:16:22.191Z,2.90
2023-04-21T13:18:48.931Z,4.27
2023-04-21T13:21:15.772Z,3.10
2023-04-21T13:23:42.481Z,2.43
2023-04-21T13:26:09.295Z,3.57
2023-04-21T13:28:36.499Z,2.23
2023-04-21T13:31:03.662Z,3.47
2023-04-21T13:33:34.813Z,2.67
2023-04-21T13:36:04.436Z,2.93
2023-04-21T13:38:31.878Z,2.03
2023-04-21T13:40:58.877Z,2.60
2023-04-21T13:43:25.965Z,1.77
2023-04-21T13:45:52.846Z,3.00
2023-04-21T13:48:21.987Z,2.30
2023-04-21T13:50:49.065Z,3.60
2023-04-21T13:53:21.134Z,3.40
2023-04-21T13:55:48.434Z,2.70
2023-04-21T13:58:16.872Z,2.07
2023-04-21T14:00:43.630Z,2.00
2023-04-21T14:03:11.685Z,2.10
2023-04-21T14:05:39.048Z,2.00
2023-04-21T14:08:06.315Z,2.00
2023-04-21T14:10:33.733Z,2.43
2023-04-21T14:13:00.738Z,3.60
2023-04-21T14:15:27.545Z,3.80
2023-04-21T14:17:54.618Z,2.60
2023-04-21T14:20:21.387Z,1.70
2023-04-21T14:22:48.139Z,4.53
2023-04-21T14:25:15.203Z,1.80
2023-04-21T14:27:42.036Z,1.87
2023-04-21T14:30:10.459Z,2.10
2023-04-21T14:32:37.533Z,2.10
2023-04-21T14:35:05.628Z,2.50
2023-04-21T14:37:33.142Z,4.20
2023-04-21T14:40:00.001Z,2.63
2023-04-21T14:42:26.775Z,2.10
2023-04-21T14:44:53.690Z,2.93
2023-04-21T14:47:21.592Z,7.40
2023-04-21T14:49:49.872Z,2.10
2023-04-21T14:52:16.521Z,1.80
2023-04-21T14:54:43.314Z,5.40
2023-04-21T14:57:18.679Z,1.90
2023-04-21T14:59:47.646Z,2.60
2023-04-21T15:02:14.682Z,1.80
2023-04-21T15:04:41.766Z,3.73
2023-04-21T15:07:08.624Z,3.00
2023-04-21T15:09:39.223Z,2.07
2023-04-21T15:12:06.178Z,1.87
2023-04-21T15:14:33.282Z,1.80
2023-04-21T15:17:00.038Z,2.80
2023-04-21T15:19:26.882Z,1.70
2023-04-21T15:21:53.582Z,2.40
2023-04-21T15:24:20.430Z,1.90
2023-04-21T15:26:47.282Z,1.60
2023-04-21T15:29:14.089Z,1.90
2023-04-21T15:31:41.076Z,1.77
2023-04-21T15:34:08.138Z,3.00
2023-04-21T15:36:34.956Z,2.00
2023-04-21T15:39:01.680Z,2.13
2023-04-21T15:41:31.507Z,2.30
2023-04-21T15:43:59.914Z,2.03
2023-04-21T15:46:26.808Z,1.70
2023-04-21T15:48:53.649Z,2.03
2023-04-21T15:51:20.827Z,2.50
2023-04-21T15:53:48.962Z,1.67
2023-04-21T15:56:16.729Z,2.60
2023-04-21T15:58:44.194Z,1.73
2023-04-21T16:01:11.537Z,2.43
2023-04-21T16:03:40.467Z,1.90
2023-04-21T16:06:08.161Z,2.33
2023-04-21T16:08:34.944Z,3.77
2023-04-21T16:11:02.036Z,2.40
2023-04-21T16:13:29.810Z,1.63
2023-04-21T16:15:56.843Z,2.60
2023-04-21T16:18:24.170Z,2.17
2023-04-21T16:20:51.208Z,1.93
2023-04-21T16:23:18.434Z,1.97
2023-04-21T16:25:45.233Z,1.77
2023-04-21T16:28:12.071Z,1.93
2023-04-21T16:30:43.213Z,4.37
2023-04-21T16:33:11.353Z,2.27
2023-04-21T16:35:39.408Z,2.10
2023-04-21T16:38:06.738Z,2.10
2023-04-21T16:40:34.191Z,2.07
2023-04-21T16:43:01.306Z,2.40
2023-04-21T16:45:29.118Z,2.00
2023-04-21T16:47:56.842Z,2.73
2023-04-21T16:50:23.809Z,2.10
2023-04-21T16:52:50.933Z,2.57
2023-04-21T16:55:17.925Z,2.50
2023-04-21T16:57:44.802Z,4.30
2023-04-21T17:00:11.857Z,2.10
2023-04-21T17:02:38.744Z,3.17
2023-04-21T17:05:05.846Z,2.00
2023-04-21T17:07:33.367Z,2.23
2023-04-21T17:10:00.047Z,2.20
2023-04-21T17:12:27.901Z,2.07
2023-04-21T17:14:54.573Z,3.50
2023-04-21T17:17:21.327Z,1.80
2023-04-21T17:19:48.319Z,2.20
2023-04-21T17:22:15.233Z,2.30
2023-04-21T17:24:52.470Z,2.50
2023-04-21T17:27:20.823Z,2.67
2023-04-21T17:29:47.590Z,2.80
2023-04-21T17:32:14.527Z,3.17
2023-04-21T17:34:41.323Z,2.27
2023-04-21T17:37:08.116Z,2.50
2023-04-21T17:39:34.800Z,4.07
2023-04-21T17:42:02.701Z,2.10
2023-04-21T17:44:29.742Z,2.30
2023-04-21T17:46:58.043Z,2.43
2023-04-21T17:49:25.363Z,2.13
2023-04-21T17:51:52.240Z,2.87
2023-04-21T17:54:18.971Z,2.53
2023-04-21T17:56:46.499Z,2.00
2023-04-21T17:59:13.446Z,2.17
2023-04-21T18:01:40.255Z,2.80
2023-04-21T18:04:07.501Z,3.50
2023-04-21T18:06:35.405Z,3.40
2023-04-21T18:09:02.253Z,2.93
2023-04-21T18:11:28.957Z,5.47
2023-04-21T18:13:55.692Z,3.07
2023-04-21T18:16:22.526Z,2.73
2023-04-21T18:18:49.967Z,2.63
2023-04-21T18:21:17.123Z,2.47
2023-04-21T18:23:44.201Z,2.20
2023-04-21T18:26:11.573Z,2.60
2023-04-21T18:28:38.202Z,2.40
2023-04-21T18:31:05.118Z,2.47
2023-04-21T18:33:31.906Z,5.10
2023-04-21T18:35:58.575Z,4.40
2023-04-21T18:38:25.497Z,4.13
2023-04-21T18:40:52.184Z,3.57
2023-04-21T18:43:19.163Z,2.80
2023-04-21T18:45:45.852Z,5.73
2023-04-21T18:48:12.603Z,2.20
2023-04-21T18:50:40.904Z,2.50
2023-04-21T18:53:08.815Z,3.27
2023-04-21T18:55:36.390Z,2.70
2023-04-21T18:58:03.207Z,4.03
2023-04-21T19:00:32.022Z,2.70
2023-04-21T19:03:02.895Z,3.30
2023-04-21T19:05:31.574Z,4.40
2023-04-21T19:07:58.930Z,6.13
2023-04-21T19:10:26.864Z,3.50
2023-04-21T19:12:53.919Z,3.30
2023-04-21T19:15:22.080Z,3.50
2023-04-21T19:17:48.853Z,3.47
2023-04-21T19:20:15.632Z,2.90
2023-04-21T19:22:42.392Z,3.70
2023-04-21T19:25:09.630Z,3.43
2023-04-21T19:27:36.790Z,3.50
2023-04-21T19:30:04.871Z,3.67
2023-04-21T19:32:31.828Z,5.00
2023-04-21T19:34:58.542Z,6.30
2023-04-21T19:37:26.421Z,3.37
2023-04-21T19:39:53.315Z,3.60
2023-04-21T19:42:20.094Z,3.70
2023-04-21T19:44:46.775Z,3.87
2023-04-21T19:47:13.841Z,4.87
2023-04-21T19:49:40.566Z,5.60
2023-04-21T19:52:07.376Z,4.90
2023-04-21T19:54:34.056Z,5.20
2023-04-21T19:57:01.677Z,4.70
2023-04-21T19:59:28.624Z,6.60
2023-04-21T20:01:55.680Z,6.60
2023-04-21T20:04:22.675Z,4.17
2023-04-21T20:06:49.676Z,4.37
2023-04-21T20:09:16.488Z,4.20
2023-04-21T20:11:43.619Z,4.07
2023-04-21T20:14:10.713Z,3.70
2023-04-21T20:16:37.991Z,4.07
2023-04-21T20:19:04.790Z,4.97
2023-04-21T20:21:32.414Z,3.90
2023-04-21T20:23:59.074Z,2.97
2023-04-21T20:26:25.966Z,3.77
2023-04-21T20:28:52.741Z,2.90
2023-04-21T20:31:23.634Z,3.47
2023-04-21T20:33:51.096Z,3.50
2023-04-21T20:36:18.318Z,4.30
2023-04-21T20:38:46.613Z,2.80
2023-04-21T20:41:13.467Z,3.37
2023-04-21T20:43:40.688Z,3.13
2023-04-21T20:46:10.420Z,1.80
2023-04-21T20:48:37.250Z,2.33
2023-04-21T20:51:04.048Z,1.87
2023-04-21T20:53:30.963Z,2.17
2023-04-21T20:55:57.633Z,1.90
2023-04-21T20:58:24.850Z,1.80
2023-04-21T21:00:51.581Z,1.47
2023-04-21T21:03:20.248Z,1.70
2023-04-21T21:05:47.657Z,3.53
2023-04-21T21:08:15.199Z,1.67
2023-04-21T21:10:42.457Z,0.90
2023-04-21T21:13:09.302Z,6.63
2023-04-21T21:15:36.032Z,1.30
2023-04-21T21:18:02.974Z,1.00
2023-04-21T21:20:29.855Z,1.37
2023-04-21T21:22:56.669Z,6.10
2023-04-21T21:25:23.540Z,1.30
2023-04-21T21:27:50.387Z,1.10
2023-04-21T21:30:17.236Z,1.10
2023-04-21T21:32:44.018Z,0.83
2023-04-21T21:35:11.804Z,1.30
2023-04-21T21:37:38.758Z,1.20
2023-04-21T21:40:06.510Z,1.40
2023-04-21T21:42:33.194Z,1.33
2023-04-21T21:45:00.361Z,1.30
2023-04-21T21:47:27.345Z,1.77
2023-04-21T21:49:56.087Z,2.17
2023-04-21T21:52:22.964Z,1.57
2023-04-21T21:54:49.730Z,1.20
2023-04-21T21:57:16.848Z,1.33
2023-04-21T21:59:43.901Z,2.13
2023-04-21T22:02:10.820Z,1.80
2023-04-21T22:04:37.871Z,1.20
2023-04-21T22:07:05.125Z,1.37
2023-04-21T22:09:31.965Z,1.30
2023-04-21T22:11:58.998Z,1.27
2023-04-21T22:14:25.808Z,1.40
2023-04-21T22:16:53.495Z,1.50
2023-04-21T22:19:20.755Z,2.70
2023-04-21T22:21:48.102Z,1.50
2023-04-21T22:24:14.964Z,1.37
2023-04-21T22:26:43.552Z,2.10
2023-04-21T22:29:10.549Z,1.67
2023-04-21T22:31:38.158Z,4.27
2023-04-21T22:34:05.205Z,1.73
2023-04-21T22:36:32.632Z,2.77
2023-04-21T22:38:59.535Z,1.73
2023-04-21T22:41:27.345Z,3.63
2023-04-21T22:43:54.452Z,2.47
2023-04-21T22:46:21.240Z,2.50
2023-04-21T22:48:48.808Z,1.93
2023-04-21T22:51:15.475Z,2.33
2023-04-21T22:53:42.285Z,1.80
2023-04-21T22:56:09.011Z,1.40
2023-04-21T22:58:35.860Z,1.80
2023-04-21T23:01:02.847Z,1.70
2023-04-21T23:03:31.073Z,3.83
2023-04-21T23:05:58.571Z,1.80
2023-04-21T23:08:25.241Z,2.40
2023-04-21T23:10:52.662Z,1.60
2023-04-21T23:13:19.461Z,1.30
2023-04-21T23:15:46.196Z,2.27
2023-04-21T23:18:13.050Z,2.23
2023-04-21T23:20:39.744Z,1.90
2023-04-21T23:23:06.515Z,1.80
2023-04-21T23:25:33.294Z,3.67
2023-04-21T23:28:00.019Z,2.43
2023-04-21T23:30:26.865Z,1.87
2023-04-21T23:32:53.620Z,3.40
2023-04-21T23:35:20.602Z,3.67
2023-04-21T23:37:47.273Z,2.20
2023-04-21T23:40:14.098Z,2.40
2023-04-21T23:42:40.962Z,2.10
2023-04-21T23:45:08.347Z,1.90
2023-04-21T23:47:35.469Z,2.10
2023-04-21T23:50:02.343Z,4.03
2023-04-21T23:52:29.114Z,2.43
2023-04-21T23:54:55.926Z,1.97
2023-04-21T23:57:22.719Z,2.00
2023-04-21T23:59:49.388Z,1.70
